sensor_id;sensor_type;location;lat;lon;timestamp;temperature;humidity
12436;DHT22;6282;51.440;6.938;2023-05-24T00:00:10;9.80;99.90
12436;DHT22;6282;51.440;6.938;2023-05-24T00:02:38;10.30;1.00
12436;DHT22;6282;51.440;6.938;2023-05-24T00:05:07;10.00;1.00
12436;DHT22;6282;51.440;6.938;2023-05-24T00:07:35;9.90;99.90
12436;DHT22;6282;51.440;6.938;2023-05-24T00:10:02;9.80;85.40
12436;DHT22;6282;51.440;6.938;2023-05-24T00:12:29;10.20;1.00
12436;DHT22;6282;51.440;6.938;2023-05-24T00:14:58;9.80;1.00
12436;DHT22;6282;51.440;6.938;2023-05-24T00:19:54;10.10;1.00
12436;DHT22;6282;51.440;6.938;2023-05-24T00:22:21;10.00;75.20
12436;DHT22;6282;51.440;6.938;2023-05-24T00:24:49;10.00;1.00
12436;DHT22;6282;51.440;6.938;2023-05-24T00:27:16;9.90;99.90
12436;DHT22;6282;51.440;6.938;2023-05-24T00:29:43;9.60;99.90
12436;DHT22;6282;51.440;6.938;2023-05-24T00:32:11;9.30;99.90
12436;DHT22;6282;51.440;6.938;2023-05-24T00:34:38;9.40;99.90
12436;DHT22;6282;51.440;6.938;2023-05-24T00:37:04;9.40;1.00
12436;DHT22;6282;51.440;6.938;2023-05-24T00:39:31;9.60;1.00
12436;DHT22;6282;51.440;6.938;2023-05-24T00:41:58;9.00;1.00
12436;DHT22;6282;51.440;6.938;2023-05-24T00:44:25;8.90;99.90
12436;DHT22;6282;51.440;6.938;2023-05-24T00:46:52;8.80;99.90
12436;DHT22;6282;51.440;6.938;2023-05-24T00:49:20;8.70;1.00
12436;DHT22;6282;51.440;6.938;2023-05-24T00:51:48;8.80;1.00
12436;DHT22;6282;51.440;6.938;2023-05-24T00:54:15;8.70;1.00
12436;DHT22;6282;51.440;6.938;2023-05-24T00:56:43;8.60;1.00
12436;DHT22;6282;51.440;6.938;2023-05-24T01:01:37;8.80;1.00
12436;DHT22;6282;51.440;6.938;2023-05-24T01:04:04;8.40;1.00
12436;DHT22;6282;51.440;6.938;2023-05-24T01:06:41;8.50;1.00
12436;DHT22;6282;51.440;6.938;2023-05-24T01:09:18;8.50;1.00
12436;DHT22;6282;51.440;6.938;2023-05-24T01:11:57;8.70;1.00
12436;DHT22;6282;51.440;6.938;2023-05-24T01:14:30;8.50;1.00
12436;DHT22;6282;51.440;6.938;2023-05-24T01:17:05;8.40;99.90
12436;DHT22;6282;51.440;6.938;2023-05-24T01:19:55;8.20;99.90
12436;DHT22;6282;51.440;6.938;2023-05-24T01:25:47;8.40;61.30
12436;DHT22;6282;51.440;6.938;2023-05-24T01:28:17;9.00;99.90
12436;DHT22;6282;51.440;6.938;2023-05-24T01:30:44;8.60;1.00
12436;DHT22;6282;51.440;6.938;2023-05-24T01:33:12;8.30;1.00
12436;DHT22;6282;51.440;6.938;2023-05-24T01:35:38;8.60;99.90
12436;DHT22;6282;51.440;6.938;2023-05-24T01:38:07;8.40;1.00
12436;DHT22;6282;51.440;6.938;2023-05-24T01:40:36;8.40;99.90
12436;DHT22;6282;51.440;6.938;2023-05-24T01:43:08;8.20;1.00
12436;DHT22;6282;51.440;6.938;2023-05-24T01:45:47;8.10;1.00
12436;DHT22;6282;51.440;6.938;2023-05-24T01:48:23;8.10;99.90
12436;DHT22;6282;51.440;6.938;2023-05-24T01:50:54;8.00;99.90
12436;DHT22;6282;51.440;6.938;2023-05-24T01:53:24;8.10;1.00
12436;DHT22;6282;51.440;6.938;2023-05-24T01:55:53;8.20;99.90
12436;DHT22;6282;51.440;6.938;2023-05-24T01:58:22;8.00;99.90
12436;DHT22;6282;51.440;6.938;2023-05-24T02:00:52;7.90;99.90
12436;DHT22;6282;51.440;6.938;2023-05-24T02:03:20;7.90;99.90
12436;DHT22;6282;51.440;6.938;2023-05-24T02:05:47;8.30;99.90
12436;DHT22;6282;51.440;6.938;2023-05-24T02:08:14;7.80;99.90
12436;DHT22;6282;51.440;6.938;2023-05-24T02:10:41;7.90;1.00
12436;DHT22;6282;51.440;6.938;2023-05-24T02:13:08;7.80;1.00
12436;DHT22;6282;51.440;6.938;2023-05-24T02:15:35;7.80;1.00
12436;DHT22;6282;51.440;6.938;2023-05-24T02:18:03;7.80;99.90
12436;DHT22;6282;51.440;6.938;2023-05-24T02:20:32;7.70;1.00
12436;DHT22;6282;51.440;6.938;2023-05-24T02:23:02;7.70;1.00
12436;DHT22;6282;51.440;6.938;2023-05-24T02:25:30;7.70;99.90
12436;DHT22;6282;51.440;6.938;2023-05-24T02:30:24;7.50;99.90
12436;DHT22;6282;51.440;6.938;2023-05-24T02:32:51;7.80;99.90
12436;DHT22;6282;51.440;6.938;2023-05-24T02:35:20;7.50;1.00
12436;DHT22;6282;51.440;6.938;2023-05-24T02:37:47;7.50;99.90
12436;DHT22;6282;51.440;6.938;2023-05-24T02:40:14;7.40;99.90
12436;DHT22;6282;51.440;6.938;2023-05-24T02:42:41;7.50;99.90
12436;DHT22;6282;51.440;6.938;2023-05-24T02:45:08;7.40;99.90
12436;DHT22;6282;51.440;6.938;2023-05-24T02:47:35;7.70;99.90
12436;DHT22;6282;51.440;6.938;2023-05-24T02:50:03;7.90;99.90
12436;DHT22;6282;51.440;6.938;2023-05-24T02:52:31;7.80;99.90
12436;DHT22;6282;51.440;6.938;2023-05-24T02:57:25;7.50;99.90
12436;DHT22;6282;51.440;6.938;2023-05-24T02:59:53;7.40;99.90
12436;DHT22;6282;51.440;6.938;2023-05-24T03:07:14;7.50;99.90
12436;DHT22;6282;51.440;6.938;2023-05-24T03:09:43;7.50;99.90
12436;DHT22;6282;51.440;6.938;2023-05-24T03:12:10;7.50;99.90
12436;DHT22;6282;51.440;6.938;2023-05-24T03:17:04;7.60;99.90
12436;DHT22;6282;51.440;6.938;2023-05-24T03:19:31;7.50;99.90
12436;DHT22;6282;51.440;6.938;2023-05-24T03:24:25;7.50;99.90
12436;DHT22;6282;51.440;6.938;2023-05-24T03:26:53;7.40;99.90
12436;DHT22;6282;51.440;6.938;2023-05-24T03:29:20;7.50;99.90
12436;DHT22;6282;51.440;6.938;2023-05-24T03:34:14;7.80;99.90
12436;DHT22;6282;51.440;6.938;2023-05-24T03:36:40;8.50;99.90
12436;DHT22;6282;51.440;6.938;2023-05-24T03:44:03;7.60;99.90
12436;DHT22;6282;51.440;6.938;2023-05-24T03:48:57;8.00;99.90
12436;DHT22;6282;51.440;6.938;2023-05-24T03:51:24;7.90;99.90
12436;DHT22;6282;51.440;6.938;2023-05-24T03:53:54;7.70;99.90
12436;DHT22;6282;51.440;6.938;2023-05-24T03:56:21;7.70;99.90
12436;DHT22;6282;51.440;6.938;2023-05-24T03:58:48;7.80;99.90
12436;DHT22;6282;51.440;6.938;2023-05-24T04:01:18;7.70;99.90
12436;DHT22;6282;51.440;6.938;2023-05-24T04:03:45;6.30;99.90
12436;DHT22;6282;51.440;6.938;2023-05-24T04:06:12;8.00;99.90
12436;DHT22;6282;51.440;6.938;2023-05-24T04:08:39;7.80;99.90
12436;DHT22;6282;51.440;6.938;2023-05-24T04:11:06;7.70;99.90
12436;DHT22;6282;51.440;6.938;2023-05-24T04:13:33;8.00;99.90
12436;DHT22;6282;51.440;6.938;2023-05-24T04:16:00;8.00;99.90
12436;DHT22;6282;51.440;6.938;2023-05-24T04:18:28;8.20;99.90
12436;DHT22;6282;51.440;6.938;2023-05-24T04:20:54;8.00;99.90
12436;DHT22;6282;51.440;6.938;2023-05-24T04:23:21;8.10;99.90
12436;DHT22;6282;51.440;6.938;2023-05-24T04:25:48;8.30;99.90
12436;DHT22;6282;51.440;6.938;2023-05-24T04:28:15;8.10;99.90
12436;DHT22;6282;51.440;6.938;2023-05-24T04:30:42;8.20;99.90
12436;DHT22;6282;51.440;6.938;2023-05-24T04:33:10;8.10;99.90
12436;DHT22;6282;51.440;6.938;2023-05-24T04:35:38;8.10;99.90
12436;DHT22;6282;51.440;6.938;2023-05-24T04:38:06;8.20;99.90
12436;DHT22;6282;51.440;6.938;2023-05-24T04:40:32;8.70;99.90
12436;DHT22;6282;51.440;6.938;2023-05-24T04:42:59;9.10;99.90
12436;DHT22;6282;51.440;6.938;2023-05-24T04:45:27;9.40;99.90
12436;DHT22;6282;51.440;6.938;2023-05-24T04:47:55;9.50;99.90
12436;DHT22;6282;51.440;6.938;2023-05-24T04:50:22;9.50;99.90
12436;DHT22;6282;51.440;6.938;2023-05-24T04:52:50;9.40;99.90
12436;DHT22;6282;51.440;6.938;2023-05-24T04:55:17;9.60;99.90
12436;DHT22;6282;51.440;6.938;2023-05-24T04:57:44;9.50;99.90
12436;DHT22;6282;51.440;6.938;2023-05-24T05:00:12;9.60;99.90
12436;DHT22;6282;51.440;6.938;2023-05-24T05:02:39;9.80;99.90
12436;DHT22;6282;51.440;6.938;2023-05-24T05:05:06;9.80;99.90
12436;DHT22;6282;51.440;6.938;2023-05-24T05:07:33;9.90;99.90
12436;DHT22;6282;51.440;6.938;2023-05-24T05:10:01;10.30;99.90
12436;DHT22;6282;51.440;6.938;2023-05-24T05:12:28;10.40;99.90
12436;DHT22;6282;51.440;6.938;2023-05-24T05:14:55;10.50;99.90
12436;DHT22;6282;51.440;6.938;2023-05-24T05:17:22;10.50;99.90
12436;DHT22;6282;51.440;6.938;2023-05-24T05:19:49;10.70;99.90
12436;DHT22;6282;51.440;6.938;2023-05-24T05:22:15;10.70;99.90
12436;DHT22;6282;51.440;6.938;2023-05-24T05:24:42;10.70;1.00
12436;DHT22;6282;51.440;6.938;2023-05-24T05:27:11;10.80;99.90
12436;DHT22;6282;51.440;6.938;2023-05-24T05:29:37;11.00;1.00
12436;DHT22;6282;51.440;6.938;2023-05-24T05:32:05;11.00;1.00
12436;DHT22;6282;51.440;6.938;2023-05-24T05:34:32;11.10;1.00
12436;DHT22;6282;51.440;6.938;2023-05-24T05:36:58;10.90;99.90
12436;DHT22;6282;51.440;6.938;2023-05-24T05:39:25;11.10;1.00
12436;DHT22;6282;51.440;6.938;2023-05-24T05:41:52;11.30;1.00
12436;DHT22;6282;51.440;6.938;2023-05-24T05:44:20;11.10;1.00
12436;DHT22;6282;51.440;6.938;2023-05-24T05:46:47;11.10;95.60
12436;DHT22;6282;51.440;6.938;2023-05-24T05:49:14;11.20;1.00
12436;DHT22;6282;51.440;6.938;2023-05-24T05:51:43;11.30;99.90
12436;DHT22;6282;51.440;6.938;2023-05-24T05:54:09;11.30;1.00
12436;DHT22;6282;51.440;6.938;2023-05-24T05:56:40;11.80;1.00
12436;DHT22;6282;51.440;6.938;2023-05-24T05:59:10;11.80;99.90
12436;DHT22;6282;51.440;6.938;2023-05-24T06:01:38;11.70;99.90
12436;DHT22;6282;51.440;6.938;2023-05-24T06:04:05;11.40;1.00
12436;DHT22;6282;51.440;6.938;2023-05-24T06:06:31;11.20;1.00
12436;DHT22;6282;51.440;6.938;2023-05-24T06:08:58;11.40;1.00
12436;DHT22;6282;51.440;6.938;2023-05-24T06:11:25;11.00;99.90
12436;DHT22;6282;51.440;6.938;2023-05-24T06:13:52;11.70;99.90
12436;DHT22;6282;51.440;6.938;2023-05-24T06:16:19;11.70;1.00
12436;DHT22;6282;51.440;6.938;2023-05-24T06:18:47;11.90;99.90
12436;DHT22;6282;51.440;6.938;2023-05-24T06:21:15;11.60;99.90
12436;DHT22;6282;51.440;6.938;2023-05-24T06:23:42;11.70;99.90
12436;DHT22;6282;51.440;6.938;2023-05-24T06:26:09;11.60;99.90
12436;DHT22;6282;51.440;6.938;2023-05-24T06:28:36;11.60;99.90
12436;DHT22;6282;51.440;6.938;2023-05-24T06:31:03;11.80;1.00
12436;DHT22;6282;51.440;6.938;2023-05-24T06:33:30;11.90;99.90
12436;DHT22;6282;51.440;6.938;2023-05-24T06:35:58;12.20;1.00
12436;DHT22;6282;51.440;6.938;2023-05-24T06:38:25;12.10;99.90
12436;DHT22;6282;51.440;6.938;2023-05-24T06:40:53;11.80;1.00
12436;DHT22;6282;51.440;6.938;2023-05-24T06:43:20;12.30;1.00
12436;DHT22;6282;51.440;6.938;2023-05-24T06:45:46;12.40;1.00
12436;DHT22;6282;51.440;6.938;2023-05-24T06:48:13;11.90;99.90
12436;DHT22;6282;51.440;6.938;2023-05-24T06:50:40;12.50;1.00
12436;DHT22;6282;51.440;6.938;2023-05-24T06:53:09;12.40;99.90
12436;DHT22;6282;51.440;6.938;2023-05-24T06:55:36;12.20;99.90
12436;DHT22;6282;51.440;6.938;2023-05-24T06:58:03;12.40;1.00
12436;DHT22;6282;51.440;6.938;2023-05-24T07:00:31;12.20;99.90
12436;DHT22;6282;51.440;6.938;2023-05-24T07:02:58;12.80;1.00
12436;DHT22;6282;51.440;6.938;2023-05-24T07:05:25;13.00;99.90
12436;DHT22;6282;51.440;6.938;2023-05-24T07:07:52;12.70;1.00
12436;DHT22;6282;51.440;6.938;2023-05-24T07:10:20;12.80;1.00
12436;DHT22;6282;51.440;6.938;2023-05-24T07:12:47;13.40;1.00
12436;DHT22;6282;51.440;6.938;2023-05-24T07:15:14;13.00;1.00
12436;DHT22;6282;51.440;6.938;2023-05-24T07:17:40;13.00;1.00
12436;DHT22;6282;51.440;6.938;2023-05-24T07:20:08;13.10;1.00
12436;DHT22;6282;51.440;6.938;2023-05-24T07:25:04;13.10;1.00
12436;DHT22;6282;51.440;6.938;2023-05-24T07:27:33;13.40;1.00
12436;DHT22;6282;51.440;6.938;2023-05-24T07:30:00;14.20;1.00
12436;DHT22;6282;51.440;6.938;2023-05-24T07:32:27;13.90;1.00
12436;DHT22;6282;51.440;6.938;2023-05-24T07:34:53;13.70;1.00
12436;DHT22;6282;51.440;6.938;2023-05-24T07:37:20;14.00;1.00
12436;DHT22;6282;51.440;6.938;2023-05-24T07:39:48;14.10;1.00
12436;DHT22;6282;51.440;6.938;2023-05-24T07:42:15;14.10;1.00
12436;DHT22;6282;51.440;6.938;2023-05-24T07:44:43;13.40;1.00
12436;DHT22;6282;51.440;6.938;2023-05-24T07:47:11;13.90;1.00
12436;DHT22;6282;51.440;6.938;2023-05-24T07:49:38;13.90;1.00
12436;DHT22;6282;51.440;6.938;2023-05-24T07:52:04;13.00;1.00
12436;DHT22;6282;51.440;6.938;2023-05-24T07:54:31;15.00;99.90
12436;DHT22;6282;51.440;6.938;2023-05-24T07:56:58;15.80;1.00
12436;DHT22;6282;51.440;6.938;2023-05-24T07:59:26;14.90;1.00
12436;DHT22;6282;51.440;6.938;2023-05-24T08:01:55;13.60;1.00
12436;DHT22;6282;51.440;6.938;2023-05-24T08:04:25;13.30;1.00
12436;DHT22;6282;51.440;6.938;2023-05-24T08:06:52;13.50;1.00
12436;DHT22;6282;51.440;6.938;2023-05-24T08:09:20;13.60;1.00
12436;DHT22;6282;51.440;6.938;2023-05-24T08:11:47;13.20;1.00
12436;DHT22;6282;51.440;6.938;2023-05-24T08:14:13;13.40;99.90
12436;DHT22;6282;51.440;6.938;2023-05-24T08:16:40;13.40;99.90
12436;DHT22;6282;51.440;6.938;2023-05-24T08:19:08;13.40;99.90
12436;DHT22;6282;51.440;6.938;2023-05-24T08:21:35;15.40;99.90
12436;DHT22;6282;51.440;6.938;2023-05-24T08:24:02;15.70;1.00
12436;DHT22;6282;51.440;6.938;2023-05-24T08:26:29;14.30;1.00
12436;DHT22;6282;51.440;6.938;2023-05-24T08:28:56;14.40;1.00
12436;DHT22;6282;51.440;6.938;2023-05-24T08:31:23;14.30;1.00
12436;DHT22;6282;51.440;6.938;2023-05-24T08:33:50;14.50;1.00
12436;DHT22;6282;51.440;6.938;2023-05-24T08:36:18;14.90;1.00
12436;DHT22;6282;51.440;6.938;2023-05-24T08:38:45;14.30;1.00
12436;DHT22;6282;51.440;6.938;2023-05-24T08:41:12;14.20;1.00
12436;DHT22;6282;51.440;6.938;2023-05-24T08:43:41;14.30;1.00
12436;DHT22;6282;51.440;6.938;2023-05-24T08:46:08;13.80;1.00
12436;DHT22;6282;51.440;6.938;2023-05-24T08:48:44;13.80;1.00
12436;DHT22;6282;51.440;6.938;2023-05-24T08:51:13;14.00;1.00
12436;DHT22;6282;51.440;6.938;2023-05-24T08:53:43;14.00;99.90
12436;DHT22;6282;51.440;6.938;2023-05-24T08:56:13;14.40;99.90
12436;DHT22;6282;51.440;6.938;2023-05-24T08:58:42;14.60;99.90
12436;DHT22;6282;51.440;6.938;2023-05-24T09:01:10;14.10;1.00
12436;DHT22;6282;51.440;6.938;2023-05-24T09:03:39;14.10;99.90
12436;DHT22;6282;51.440;6.938;2023-05-24T09:06:08;14.80;99.90
12436;DHT22;6282;51.440;6.938;2023-05-24T09:08:36;14.90;1.00
12436;DHT22;6282;51.440;6.938;2023-05-24T09:11:06;15.30;1.00
12436;DHT22;6282;51.440;6.938;2023-05-24T09:13:33;17.10;1.00
12436;DHT22;6282;51.440;6.938;2023-05-24T09:16:01;16.60;1.00
12436;DHT22;6282;51.440;6.938;2023-05-24T09:18:27;16.40;3.00
12436;DHT22;6282;51.440;6.938;2023-05-24T09:20:55;16.60;1.00
12436;DHT22;6282;51.440;6.938;2023-05-24T09:23:22;16.10;1.00
12436;DHT22;6282;51.440;6.938;2023-05-24T09:25:49;15.70;1.00
12436;DHT22;6282;51.440;6.938;2023-05-24T09:28:18;15.30;1.00
12436;DHT22;6282;51.440;6.938;2023-05-24T09:30:56;15.20;1.00
12436;DHT22;6282;51.440;6.938;2023-05-24T09:33:28;15.30;1.00
12436;DHT22;6282;51.440;6.938;2023-05-24T09:35:57;15.10;1.00
12436;DHT22;6282;51.440;6.938;2023-05-24T09:38:25;15.20;1.00
12436;DHT22;6282;51.440;6.938;2023-05-24T09:41:00;15.50;1.00
12436;DHT22;6282;51.440;6.938;2023-05-24T09:43:29;16.70;1.00
12436;DHT22;6282;51.440;6.938;2023-05-24T09:45:57;16.00;1.00
12436;DHT22;6282;51.440;6.938;2023-05-24T09:48:25;15.60;1.00
12436;DHT22;6282;51.440;6.938;2023-05-24T09:51:02;14.80;1.00
12436;DHT22;6282;51.440;6.938;2023-05-24T09:53:29;15.20;1.00
12436;DHT22;6282;51.440;6.938;2023-05-24T09:55:58;15.40;1.00
12436;DHT22;6282;51.440;6.938;2023-05-24T09:58:30;15.20;1.00
12436;DHT22;6282;51.440;6.938;2023-05-24T10:01:05;14.90;1.00
12436;DHT22;6282;51.440;6.938;2023-05-24T10:03:33;14.60;1.00
12436;DHT22;6282;51.440;6.938;2023-05-24T10:06:02;14.60;1.00
12436;DHT22;6282;51.440;6.938;2023-05-24T10:08:33;14.80;1.00
12436;DHT22;6282;51.440;6.938;2023-05-24T10:11:01;14.90;1.00
12436;DHT22;6282;51.440;6.938;2023-05-24T10:13:31;15.20;1.00
12436;DHT22;6282;51.440;6.938;2023-05-24T10:15:58;15.20;1.00
12436;DHT22;6282;51.440;6.938;2023-05-24T10:18:24;15.90;1.00
12436;DHT22;6282;51.440;6.938;2023-05-24T10:20:54;15.90;1.00
12436;DHT22;6282;51.440;6.938;2023-05-24T10:23:21;15.30;1.00
12436;DHT22;6282;51.440;6.938;2023-05-24T10:25:55;15.40;1.00
12436;DHT22;6282;51.440;6.938;2023-05-24T10:28:25;16.00;1.00
12436;DHT22;6282;51.440;6.938;2023-05-24T10:31:00;16.20;10.90
12436;DHT22;6282;51.440;6.938;2023-05-24T10:33:29;16.50;12.30
12436;DHT22;6282;51.440;6.938;2023-05-24T10:35:56;15.70;14.10
12436;DHT22;6282;51.440;6.938;2023-05-24T10:38:24;15.00;1.00
12436;DHT22;6282;51.440;6.938;2023-05-24T10:40:51;14.90;1.00
12436;DHT22;6282;51.440;6.938;2023-05-24T10:43:18;15.20;1.00
12436;DHT22;6282;51.440;6.938;2023-05-24T10:45:48;15.20;1.00
12436;DHT22;6282;51.440;6.938;2023-05-24T10:48:36;14.80;1.00
12436;DHT22;6282;51.440;6.938;2023-05-24T10:51:37;14.70;1.00
12436;DHT22;6282;51.440;6.938;2023-05-24T10:54:17;14.60;1.00
12436;DHT22;6282;51.440;6.938;2023-05-24T10:56:45;14.60;1.00
12436;DHT22;6282;51.440;6.938;2023-05-24T10:59:33;14.40;1.00
12436;DHT22;6282;51.440;6.938;2023-05-24T11:02:03;14.10;1.00
12436;DHT22;6282;51.440;6.938;2023-05-24T11:04:34;14.10;1.00
12436;DHT22;6282;51.440;6.938;2023-05-24T11:07:02;14.10;1.00
12436;DHT22;6282;51.440;6.938;2023-05-24T11:09:30;14.00;1.00
12436;DHT22;6282;51.440;6.938;2023-05-24T11:12:00;14.00;1.00
12436;DHT22;6282;51.440;6.938;2023-05-24T11:14:29;13.90;1.00
12436;DHT22;6282;51.440;6.938;2023-05-24T11:16:57;14.00;1.00
12436;DHT22;6282;51.440;6.938;2023-05-24T11:19:30;13.80;99.90
12436;DHT22;6282;51.440;6.938;2023-05-24T11:22:00;13.90;1.00
12436;DHT22;6282;51.440;6.938;2023-05-24T11:24:27;14.30;1.00
12436;DHT22;6282;51.440;6.938;2023-05-24T11:26:55;14.10;1.00
12436;DHT22;6282;51.440;6.938;2023-05-24T11:29:23;14.50;99.90
12436;DHT22;6282;51.440;6.938;2023-05-24T11:31:51;14.60;99.90
12436;DHT22;6282;51.440;6.938;2023-05-24T11:34:18;14.50;1.00
12436;DHT22;6282;51.440;6.938;2023-05-24T11:36:45;14.30;1.00
12436;DHT22;6282;51.440;6.938;2023-05-24T11:39:14;14.20;1.00
12436;DHT22;6282;51.440;6.938;2023-05-24T11:41:41;14.60;1.00
12436;DHT22;6282;51.440;6.938;2023-05-24T11:44:08;14.70;1.00
12436;DHT22;6282;51.440;6.938;2023-05-24T11:46:36;14.70;1.00
12436;DHT22;6282;51.440;6.938;2023-05-24T11:49:04;15.10;1.00
12436;DHT22;6282;51.440;6.938;2023-05-24T11:51:33;14.90;1.00
12436;DHT22;6282;51.440;6.938;2023-05-24T11:54:00;14.90;1.00
12436;DHT22;6282;51.440;6.938;2023-05-24T11:56:29;15.20;1.00
12436;DHT22;6282;51.440;6.938;2023-05-24T11:59:07;15.80;1.00
12436;DHT22;6282;51.440;6.938;2023-05-24T12:01:34;16.00;1.00
12436;DHT22;6282;51.440;6.938;2023-05-24T12:04:04;16.20;1.00
12436;DHT22;6282;51.440;6.938;2023-05-24T12:06:34;15.80;1.00
12436;DHT22;6282;51.440;6.938;2023-05-24T12:09:02;15.70;1.00
12436;DHT22;6282;51.440;6.938;2023-05-24T12:11:36;15.50;1.00
12436;DHT22;6282;51.440;6.938;2023-05-24T12:14:04;15.60;1.00
12436;DHT22;6282;51.440;6.938;2023-05-24T12:16:31;15.10;1.00
12436;DHT22;6282;51.440;6.938;2023-05-24T12:18:58;15.00;1.00
12436;DHT22;6282;51.440;6.938;2023-05-24T12:21:29;14.70;1.00
12436;DHT22;6282;51.440;6.938;2023-05-24T12:24:06;14.90;1.00
12436;DHT22;6282;51.440;6.938;2023-05-24T12:26:36;14.80;1.00
12436;DHT22;6282;51.440;6.938;2023-05-24T12:29:03;15.70;1.00
12436;DHT22;6282;51.440;6.938;2023-05-24T12:31:30;15.80;1.00
12436;DHT22;6282;51.440;6.938;2023-05-24T12:33:57;15.00;1.00
12436;DHT22;6282;51.440;6.938;2023-05-24T12:36:24;14.90;1.00
12436;DHT22;6282;51.440;6.938;2023-05-24T12:38:55;14.80;1.00
12436;DHT22;6282;51.440;6.938;2023-05-24T12:41:22;15.30;1.00
12436;DHT22;6282;51.440;6.938;2023-05-24T12:43:51;15.30;1.00
12436;DHT22;6282;51.440;6.938;2023-05-24T12:48:46;15.70;99.90
12436;DHT22;6282;51.440;6.938;2023-05-24T12:51:13;15.70;99.90
12436;DHT22;6282;51.440;6.938;2023-05-24T12:53:39;16.20;99.90
12436;DHT22;6282;51.440;6.938;2023-05-24T12:56:07;16.10;99.90
12436;DHT22;6282;51.440;6.938;2023-05-24T12:58:34;16.10;99.90
12436;DHT22;6282;51.440;6.938;2023-05-24T13:01:03;15.80;1.00
12436;DHT22;6282;51.440;6.938;2023-05-24T13:03:30;15.10;1.00
12436;DHT22;6282;51.440;6.938;2023-05-24T13:08:24;16.00;99.90
12436;DHT22;6282;51.440;6.938;2023-05-24T13:10:53;16.10;1.00
12436;DHT22;6282;51.440;6.938;2023-05-24T13:13:19;15.90;99.90
12436;DHT22;6282;51.440;6.938;2023-05-24T13:15:48;15.50;99.90
12436;DHT22;6282;51.440;6.938;2023-05-24T13:18:16;15.30;30.80
12436;DHT22;6282;51.440;6.938;2023-05-24T13:20:43;15.20;99.90
12436;DHT22;6282;51.440;6.938;2023-05-24T13:25:37;15.60;1.00
12436;DHT22;6282;51.440;6.938;2023-05-24T13:28:04;15.50;99.90
12436;DHT22;6282;51.440;6.938;2023-05-24T13:30:31;16.20;95.80
12436;DHT22;6282;51.440;6.938;2023-05-24T13:35:27;16.20;1.00
12436;DHT22;6282;51.440;6.938;2023-05-24T13:37:55;16.00;99.90
12436;DHT22;6282;51.440;6.938;2023-05-24T13:40:23;15.80;26.20
12436;DHT22;6282;51.440;6.938;2023-05-24T13:42:50;16.00;1.00
12436;DHT22;6282;51.440;6.938;2023-05-24T13:45:18;15.80;1.00
12436;DHT22;6282;51.440;6.938;2023-05-24T13:47:45;15.80;1.00
12436;DHT22;6282;51.440;6.938;2023-05-24T13:50:11;15.70;1.00
12436;DHT22;6282;51.440;6.938;2023-05-24T13:52:40;15.70;1.00
12436;DHT22;6282;51.440;6.938;2023-05-24T13:55:07;15.80;1.00
12436;DHT22;6282;51.440;6.938;2023-05-24T13:57:34;15.60;7.50
12436;DHT22;6282;51.440;6.938;2023-05-24T14:00:01;15.70;96.40
12436;DHT22;6282;51.440;6.938;2023-05-24T14:04:57;15.90;99.90
12436;DHT22;6282;51.440;6.938;2023-05-24T14:07:24;15.90;3.30
12436;DHT22;6282;51.440;6.938;2023-05-24T14:09:52;16.00;1.00
12436;DHT22;6282;51.440;6.938;2023-05-24T14:12:19;15.60;1.00
12436;DHT22;6282;51.440;6.938;2023-05-24T14:14:46;15.70;1.00
12436;DHT22;6282;51.440;6.938;2023-05-24T14:17:12;15.50;1.00
12436;DHT22;6282;51.440;6.938;2023-05-24T14:19:39;15.50;1.00
12436;DHT22;6282;51.440;6.938;2023-05-24T14:22:06;15.30;1.00
12436;DHT22;6282;51.440;6.938;2023-05-24T14:24:33;15.10;1.00
12436;DHT22;6282;51.440;6.938;2023-05-24T14:27:01;15.10;99.90
12436;DHT22;6282;51.440;6.938;2023-05-24T14:29:28;15.20;1.00
12436;DHT22;6282;51.440;6.938;2023-05-24T14:31:55;15.40;99.90
12436;DHT22;6282;51.440;6.938;2023-05-24T14:34:22;15.30;99.90
12436;DHT22;6282;51.440;6.938;2023-05-24T14:36:49;15.10;99.90
12436;DHT22;6282;51.440;6.938;2023-05-24T14:39:16;15.10;99.90
12436;DHT22;6282;51.440;6.938;2023-05-24T14:41:43;15.10;99.90
12436;DHT22;6282;51.440;6.938;2023-05-24T14:44:11;14.70;99.90
12436;DHT22;6282;51.440;6.938;2023-05-24T14:46:39;15.50;99.90
12436;DHT22;6282;51.440;6.938;2023-05-24T14:49:06;14.80;99.90
12436;DHT22;6282;51.440;6.938;2023-05-24T14:51:33;14.90;99.90
12436;DHT22;6282;51.440;6.938;2023-05-24T14:54:00;15.20;99.90
12436;DHT22;6282;51.440;6.938;2023-05-24T14:56:26;15.20;1.00
12436;DHT22;6282;51.440;6.938;2023-05-24T14:58:53;15.40;99.90
12436;DHT22;6282;51.440;6.938;2023-05-24T15:01:21;15.20;99.90
12436;DHT22;6282;51.440;6.938;2023-05-24T15:03:48;15.30;99.90
12436;DHT22;6282;51.440;6.938;2023-05-24T15:06:15;15.50;1.00
12436;DHT22;6282;51.440;6.938;2023-05-24T15:08:42;15.20;1.00
12436;DHT22;6282;51.440;6.938;2023-05-24T15:11:09;15.20;99.90
12436;DHT22;6282;51.440;6.938;2023-05-24T15:13:36;15.30;99.90
12436;DHT22;6282;51.440;6.938;2023-05-24T15:18:32;15.30;99.90
12436;DHT22;6282;51.440;6.938;2023-05-24T15:20:59;15.30;99.90
12436;DHT22;6282;51.440;6.938;2023-05-24T15:23:26;15.40;99.90
12436;DHT22;6282;51.440;6.938;2023-05-24T15:25:53;15.40;99.90
12436;DHT22;6282;51.440;6.938;2023-05-24T15:28:20;15.50;1.00
12436;DHT22;6282;51.440;6.938;2023-05-24T15:30:47;15.30;1.00
12436;DHT22;6282;51.440;6.938;2023-05-24T15:33:14;15.10;1.00
12436;DHT22;6282;51.440;6.938;2023-05-24T15:35:43;14.90;1.00
12436;DHT22;6282;51.440;6.938;2023-05-24T15:38:10;15.60;99.90
12436;DHT22;6282;51.440;6.938;2023-05-24T15:40:37;15.40;99.90
12436;DHT22;6282;51.440;6.938;2023-05-24T15:43:06;15.40;99.90
12436;DHT22;6282;51.440;6.938;2023-05-24T15:45:33;15.30;99.90
12436;DHT22;6282;51.440;6.938;2023-05-24T15:48:00;15.30;99.90
12436;DHT22;6282;51.440;6.938;2023-05-24T15:50:28;15.60;99.90
12436;DHT22;6282;51.440;6.938;2023-05-24T15:52:57;15.40;99.90
12436;DHT22;6282;51.440;6.938;2023-05-24T15:55:24;15.40;1.00
12436;DHT22;6282;51.440;6.938;2023-05-24T15:57:50;15.30;1.00
12436;DHT22;6282;51.440;6.938;2023-05-24T16:00:17;15.50;1.00
12436;DHT22;6282;51.440;6.938;2023-05-24T16:02:44;15.20;1.00
12436;DHT22;6282;51.440;6.938;2023-05-24T16:05:11;15.00;1.00
12436;DHT22;6282;51.440;6.938;2023-05-24T16:07:38;15.10;1.00
12436;DHT22;6282;51.440;6.938;2023-05-24T16:10:07;15.10;99.90
12436;DHT22;6282;51.440;6.938;2023-05-24T16:12:33;15.20;99.90
12436;DHT22;6282;51.440;6.938;2023-05-24T16:15:00;15.10;99.90
12436;DHT22;6282;51.440;6.938;2023-05-24T16:17:27;14.90;99.90
12436;DHT22;6282;51.440;6.938;2023-05-24T16:19:54;15.00;99.90
12436;DHT22;6282;51.440;6.938;2023-05-24T16:22:21;15.20;99.90
12436;DHT22;6282;51.440;6.938;2023-05-24T16:24:49;15.30;99.90
12436;DHT22;6282;51.440;6.938;2023-05-24T16:27:18;15.50;99.90
12436;DHT22;6282;51.440;6.938;2023-05-24T16:29:44;15.70;99.90
12436;DHT22;6282;51.440;6.938;2023-05-24T16:32:13;15.70;99.90
12436;DHT22;6282;51.440;6.938;2023-05-24T16:34:40;15.80;99.90
12436;DHT22;6282;51.440;6.938;2023-05-24T16:37:07;15.80;99.90
12436;DHT22;6282;51.440;6.938;2023-05-24T16:39:34;15.70;99.90
12436;DHT22;6282;51.440;6.938;2023-05-24T16:42:03;15.60;99.90
12436;DHT22;6282;51.440;6.938;2023-05-24T16:44:32;15.50;99.90
12436;DHT22;6282;51.440;6.938;2023-05-24T16:46:59;15.40;99.90
12436;DHT22;6282;51.440;6.938;2023-05-24T16:49:26;15.40;99.90
12436;DHT22;6282;51.440;6.938;2023-05-24T16:51:53;15.20;99.90
12436;DHT22;6282;51.440;6.938;2023-05-24T16:54:20;15.10;99.90